createdAt,value
2019-05-11T00:00:52.484Z,12.30
2019-05-11T00:05:58.434Z,12.50
2019-05-11T00:11:03.651Z,12.30
2019-05-11T00:16:08.727Z,11.57
2019-05-11T00:21:13.717Z,12.23
2019-05-11T00:26:18.770Z,10.97
2019-05-11T00:31:23.928Z,11.13
2019-05-11T00:36:28.898Z,9.83
2019-05-11T00:41:33.911Z,10.77
2019-05-11T00:46:38.855Z,10.60
2019-05-11T00:51:43.839Z,10.07
2019-05-11T00:56:48.903Z,9.83
2019-05-11T01:01:53.924Z,8.97
2019-05-11T01:06:59.036Z,9.83
2019-05-11T01:12:04.118Z,9.67
2019-05-11T01:17:10.277Z,9.97
2019-05-11T01:22:15.499Z,9.80
2019-05-11T01:27:20.558Z,9.60
2019-05-11T01:32:25.658Z,8.57
2019-05-11T01:37:30.748Z,10.13
2019-05-11T01:42:35.803Z,10.80
2019-05-11T01:47:40.936Z,10.63
2019-05-11T01:52:45.854Z,10.27
2019-05-11T01:57:50.951Z,10.03
2019-05-11T02:02:56.023Z,10.67
2019-05-11T02:08:02.621Z,10.27
2019-05-11T02:13:07.731Z,11.37
2019-05-11T02:18:12.882Z,11.33
2019-05-11T02:23:17.859Z,10.40
2019-05-11T02:28:22.838Z,11.17
2019-05-11T02:33:27.885Z,12.63
2019-05-11T02:38:32.859Z,12.07
2019-05-11T02:43:37.955Z,10.97
2019-05-11T02:49:15.757Z,13.53
2019-05-11T02:54:39.332Z,10.17
2019-05-11T02:59:44.371Z,7.17
2019-05-11T03:04:49.325Z,6.63
2019-05-11T03:09:54.430Z,6.13
2019-05-11T03:14:59.391Z,8.40
2019-05-11T03:20:06.044Z,10.00
2019-05-11T03:25:11.161Z,9.87
2019-05-11T03:30:16.378Z,14.13
2019-05-11T03:35:21.447Z,13.60
2019-05-11T03:40:26.524Z,13.73
2019-05-11T03:45:31.649Z,10.83
2019-05-11T03:50:36.744Z,17.67
2019-05-11T03:55:41.819Z,14.90
2019-05-11T04:00:46.864Z,18.63
2019-05-11T04:05:52.014Z,18.80
2019-05-11T04:10:56.965Z,17.73
2019-05-11T04:16:01.951Z,13.60
2019-05-11T04:21:06.991Z,17.10
2019-05-11T04:26:12.015Z,16.17
2019-05-11T04:31:16.963Z,15.43
2019-05-11T04:36:22.013Z,16.60
2019-05-11T04:41:27.059Z,11.47
2019-05-11T04:46:33.184Z,13.60
2019-05-11T04:51:38.197Z,11.70
2019-05-11T04:56:43.387Z,11.27
2019-05-11T05:01:48.429Z,11.20
2019-05-11T05:06:59.922Z,11.57
2019-05-11T05:12:00.046Z,13.37
2019-05-11T05:17:05.106Z,12.63
2019-05-11T05:22:10.087Z,11.47
2019-05-11T05:27:15.135Z,10.67
2019-05-11T05:32:20.111Z,11.60
2019-05-11T05:37:25.285Z,13.80
2019-05-11T05:42:30.323Z,13.47
2019-05-11T05:47:35.381Z,13.23
2019-05-11T05:52:40.324Z,10.20
2019-05-11T05:57:45.299Z,11.07
2019-05-11T06:02:50.435Z,10.97
2019-05-11T06:07:55.388Z,10.23
2019-05-11T06:13:00.414Z,12.80
2019-05-11T06:18:05.610Z,12.03
2019-05-11T06:23:10.667Z,11.77
2019-05-11T06:28:15.715Z,11.10
2019-05-11T06:33:20.769Z,8.80
2019-05-11T06:38:25.713Z,10.40
2019-05-11T06:43:30.735Z,10.47
2019-05-11T06:48:36.239Z,9.83
2019-05-11T06:53:41.429Z,8.90
2019-05-11T06:58:46.394Z,8.90
2019-05-11T07:03:51.367Z,8.87
2019-05-11T07:08:56.419Z,8.33
2019-05-11T07:14:18.697Z,7.83
2019-05-11T07:19:08.028Z,7.13
2019-05-11T07:24:13.118Z,7.57
2019-05-11T07:29:18.351Z,6.13
2019-05-11T07:34:23.408Z,6.10
2019-05-11T07:39:28.659Z,5.03
2019-05-11T07:44:38.298Z,5.53
2019-05-11T07:49:40.204Z,5.03
2019-05-11T07:54:51.824Z,6.57
2019-05-11T07:59:52.076Z,8.47
2019-05-11T08:04:58.642Z,5.70
2019-05-11T08:10:08.205Z,7.23
2019-05-11T08:15:13.994Z,6.00
2019-05-11T08:20:27.903Z,7.10
2019-05-11T08:25:32.918Z,7.63
2019-05-11T08:30:38.243Z,6.27
2019-05-11T08:35:43.320Z,8.10
2019-05-11T08:40:48.636Z,6.87
2019-05-11T08:45:53.595Z,6.37
2019-05-11T08:50:58.563Z,5.67
2019-05-11T08:56:03.660Z,6.10
2019-05-11T09:01:08.960Z,5.77
2019-05-11T09:06:14.086Z,4.70
2019-05-11T09:11:19.338Z,5.93
2019-05-11T09:16:24.276Z,5.93
2019-05-11T09:27:22.430Z,3.90
2019-05-11T09:32:42.130Z,3.90
2019-05-11T09:38:01.921Z,4.90
2019-05-11T09:43:21.923Z,4.70
2019-05-11T09:48:42.649Z,5.50
2019-05-11T09:59:38.503Z,4.90
2019-05-11T10:04:57.680Z,5.90
2019-05-11T10:10:14.938Z,5.17
2019-05-11T10:15:33.913Z,4.30
2019-05-11T10:20:53.939Z,5.20
2019-05-11T10:26:13.721Z,3.43
2019-05-11T10:31:28.462Z,3.90
2019-05-11T10:36:48.672Z,3.20
2019-05-11T10:42:17.862Z,3.47
2019-05-11T10:47:38.229Z,3.70
2019-05-11T11:03:48.543Z,3.17
2019-05-11T11:09:10.217Z,2.37
2019-05-11T11:14:28.870Z,2.75
2019-05-11T11:19:53.701Z,3.00
2019-05-11T11:25:13.189Z,2.60
2019-05-11T11:36:01.087Z,3.33
2019-05-11T11:41:22.411Z,2.20
2019-05-11T11:57:38.600Z,2.40
2019-05-11T12:02:58.800Z,2.60
2019-05-11T12:08:10.670Z,2.80
2019-05-11T12:13:29.869Z,1.87
2019-05-11T12:35:12.477Z,1.30
2019-05-11T12:46:00.743Z,2.27
2019-05-11T12:56:48.743Z,2.10
2019-05-11T13:01:59.215Z,2.62
2019-05-11T13:07:22.782Z,2.40
2019-05-11T13:12:43.093Z,2.80
2019-05-11T13:18:04.837Z,2.92
2019-05-11T13:23:27.638Z,2.58
2019-05-11T13:28:45.476Z,3.00
2019-05-11T13:34:05.670Z,3.20
2019-05-11T13:39:28.398Z,3.40
2019-05-11T13:50:17.731Z,3.52
2019-05-11T13:55:38.583Z,2.87
2019-05-11T14:01:08.095Z,2.70
2019-05-11T14:06:28.752Z,2.62
2019-05-11T14:17:03.471Z,3.00
2019-05-11T14:22:08.793Z,3.15
2019-05-11T14:27:13.801Z,4.60
2019-05-11T14:32:18.783Z,9.20
2019-05-11T14:37:23.867Z,2.77
2019-05-11T14:42:28.989Z,2.58
2019-05-11T14:47:33.941Z,3.67
2019-05-11T14:52:39.221Z,3.77
2019-05-11T14:57:44.233Z,3.98
2019-05-11T15:02:50.059Z,3.30
2019-05-11T15:07:55.203Z,3.00
2019-05-11T15:13:00.243Z,3.30
2019-05-11T15:18:05.372Z,3.40
2019-05-11T15:23:10.413Z,3.30
2019-05-11T15:28:15.519Z,2.75
2019-05-11T15:33:20.467Z,2.70
2019-05-11T15:38:25.519Z,4.03
2019-05-11T15:43:30.589Z,3.20
2019-05-11T15:48:52.810Z,3.77
2019-05-11T15:53:42.272Z,3.92
2019-05-11T15:58:48.712Z,3.85
2019-05-11T16:03:53.827Z,3.80
2019-05-11T16:08:58.843Z,4.70
2019-05-11T16:14:03.963Z,4.35
2019-05-11T16:19:14.707Z,4.45
2019-05-11T16:24:15.643Z,4.08
2019-05-11T16:29:20.620Z,3.42
2019-05-11T16:34:27.632Z,4.17
2019-05-11T16:39:32.353Z,3.72
2019-05-11T16:44:37.851Z,3.72
2019-05-11T16:49:42.951Z,4.47
2019-05-11T16:54:47.931Z,5.30
2019-05-11T16:59:52.915Z,4.10
2019-05-11T17:04:58.162Z,3.90
2019-05-11T17:10:04.590Z,4.77
2019-05-11T17:15:09.894Z,5.03
2019-05-11T17:20:15.183Z,4.00
2019-05-11T17:25:20.161Z,4.43
2019-05-11T17:30:25.172Z,4.43
2019-05-11T17:35:30.147Z,5.07
2019-05-11T17:40:37.669Z,5.40
2019-05-11T17:45:41.918Z,5.30
2019-05-11T17:50:47.032Z,5.27
2019-05-11T17:55:51.979Z,6.90
2019-05-11T18:00:58.838Z,7.57
2019-05-11T18:06:03.867Z,13.03
2019-05-11T18:11:08.935Z,10.40
2019-05-11T18:16:14.055Z,8.10
2019-05-11T18:21:19.086Z,8.20
2019-05-11T18:26:24.020Z,7.27
2019-05-11T18:31:29.071Z,7.57
2019-05-11T18:36:34.015Z,7.53
2019-05-11T18:41:39.273Z,8.87
2019-05-11T18:46:44.515Z,8.57
2019-05-11T18:51:49.563Z,7.47
2019-05-11T18:56:54.607Z,7.90
2019-05-11T19:01:59.656Z,7.60
2019-05-11T19:07:14.275Z,5.33
2019-05-11T19:12:11.440Z,6.37
2019-05-11T19:17:18.165Z,8.07
2019-05-11T19:22:23.237Z,12.20
2019-05-11T19:27:29.258Z,10.07
2019-05-11T19:32:34.291Z,10.60
2019-05-11T19:37:39.619Z,9.10
2019-05-11T19:42:53.753Z,11.63
2019-05-11T19:48:00.128Z,12.83
2019-05-11T19:53:05.187Z,13.30
2019-05-11T19:58:10.286Z,12.73
2019-05-11T20:03:15.338Z,8.73
2019-05-11T20:08:20.589Z,10.00
2019-05-11T20:13:25.605Z,9.13
2019-05-11T20:18:30.704Z,9.57
2019-05-11T20:23:37.563Z,7.60
2019-05-11T20:28:42.398Z,9.13
2019-05-11T20:33:47.755Z,8.37
2019-05-11T20:38:53.878Z,7.67
2019-05-11T20:43:58.929Z,7.07
2019-05-11T20:49:03.972Z,7.77
2019-05-11T20:54:09.083Z,8.73
2019-05-11T20:59:14.211Z,6.80
2019-05-11T21:04:19.182Z,6.13
2019-05-11T21:09:24.222Z,6.83
2019-05-11T21:14:29.279Z,6.17
2019-05-11T21:19:34.290Z,6.47
2019-05-11T21:24:39.202Z,7.70
2019-05-11T21:29:44.159Z,7.57
2019-05-11T21:34:49.175Z,8.07
2019-05-11T21:39:54.226Z,10.10
2019-05-11T21:44:59.179Z,7.60
2019-05-11T21:50:04.692Z,6.87
2019-05-11T21:55:09.977Z,6.37
2019-05-11T22:00:15.327Z,6.50
2019-05-11T22:05:21.966Z,5.87
2019-05-11T22:10:28.351Z,5.57
2019-05-11T22:15:33.714Z,6.90
2019-05-11T22:20:40.915Z,6.00
2019-05-11T22:25:47.552Z,5.80
2019-05-11T22:30:53.133Z,4.70
2019-05-11T22:35:58.885Z,6.10
2019-05-11T22:41:03.946Z,5.43
2019-05-11T22:46:08.995Z,5.80
2019-05-11T22:51:13.995Z,6.03
2019-05-11T22:56:20.069Z,5.30
2019-05-11T23:01:28.275Z,6.17
2019-05-11T23:06:32.959Z,5.83
2019-05-11T23:11:38.045Z,5.50
2019-05-11T23:16:44.178Z,5.40
2019-05-11T23:21:49.520Z,5.47
2019-05-11T23:26:54.491Z,5.50
2019-05-11T23:32:00.599Z,5.23
2019-05-11T23:37:07.868Z,5.70
2019-05-11T23:42:12.343Z,5.27
2019-05-11T23:47:19.999Z,4.50
2019-05-11T23:52:23.974Z,6.53
2019-05-11T23:57:29.098Z,5.93
